LATI/TIA METAR and TAF weather

Enter ICAO airport designator
Station Type Date Time Source
LATI METAR 2020/01/22 12:20 UTC NOAA

LATI 221220Z 36005KT 320V050 CAVOK 13/03 Q1031 NOSIG


Station Type Date Time Source
LATI Decoded METAR 2020/01/22 12:20 UTC NOAA

Tirana, Albania (LATI) 41-20N 019-47E 90M
Jan 22, 2020 - 07:20 AM EST / 2020.01.22 1220 UTC
Wind: from the N (360 degrees) at 6 MPH (5 KT) (direction variable):0
Visibility: greater than 7 mile(s):0
Temperature: 55 F (13 C)
Dew Point: 37 F (3 C)
Relative Humidity: 50%
Pressure (altimeter): 30.45 in. Hg (1031 hPa)
ob: LATI 221220Z 36005KT 320V050 CAVOK 13/03 Q1031 NOSIG
cycle: 12

Station Type Date Time Source
LATI TAF 2020/01/22 12:21 UTC NOAA

TAF TAF LATI 221100Z 2212/2312 VRB04KT CAVOK TX16/2312Z TNM02/2305Z
TEMPO 2222/2307 1500 BCFG SCT020

Example: see airport list